Time;durP1;ratioP1;P1;durP2;ratioP2;P2;SDS_P1;SDS_P2;PMS_P1;PMS_P2;Temp;Humidity;BMP_temperature;BMP_pressure;BME280_temperature;BME280_humidity;BME280_pressure;Samples;Min_cycle;Max_cycle;Signal;HPM_P1;HPM_P2
2021/03/10 00:01:41;;;;;;;18.47;10.87;;;;;;;;;;5001592;28;20188;-48
2021/03/10 00:04:06;;;;;;;22.10;14.00;;;;;;;;;;5005846;28;20211;-48
2021/03/10 00:06:32;;;;;;;20.03;12.17;;;;;;;;;;4998485;28;20219;-48
2021/03/10 00:08:57;;;;;;;18.20;10.60;;;;;;;;;;4997311;28;20198;-48
2021/03/10 00:11:23;;;;;;;19.20;12.03;;;;;;;;;;5004356;28;20196;-49
2021/03/10 00:13:48;;;;;;;20.20;11.93;;;;;;;;;;4987747;28;20219;-49
2021/03/10 00:16:13;;;;;;;23.47;12.13;;;;;;;;;;5001398;28;20210;-48
2021/03/10 00:18:39;;;;;;;23.83;12.63;;;;;;;;;;5003902;28;20199;-48
2021/03/10 00:21:04;;;;;;;22.80;13.03;;;;;;;;;;5005833;28;20192;-48
2021/03/10 00:23:30;;;;;;;26.37;14.93;;;;;;;;;;5001744;28;20183;-47
2021/03/10 00:25:55;;;;;;;24.70;14.13;;;;;;;;;;4999598;28;20667;-48
2021/03/10 00:28:20;;;;;;;23.13;14.07;;;;;;;;;;5002396;28;20192;-49
2021/03/10 00:30:45;;;;;;;23.67;13.70;;;;;;;;;;4990739;28;20196;-48
2021/03/10 00:33:11;;;;;;;22.30;12.57;;;;;;;;;;5012308;28;20234;-47
2021/03/10 00:35:36;;;;;;;24.07;13.47;;;;;;;;;;5001209;28;20215;-50
2021/03/10 00:38:01;;;;;;;26.30;14.70;;;;;;;;;;5003767;28;20192;-46
2021/03/10 00:40:28;;;;;;;21.40;14.10;;;;;;;;;;4991808;28;20592;-48
2021/03/10 00:42:53;;;;;;;26.17;15.13;;;;;;;;;;5004055;28;20218;-48
2021/03/10 00:45:19;;;;;;;25.43;15.90;;;;;;;;;;5001414;28;20274;-48
2021/03/10 00:47:44;;;;;;;26.43;15.73;;;;;;;;;;4994763;28;20192;-47
2021/03/10 00:50:10;;;;;;;24.87;15.73;;;;;;;;;;5004318;28;20204;-50
2021/03/10 00:52:35;;;;;;;24.43;14.40;;;;;;;;;;4987791;28;20195;-47
2021/03/10 00:55:01;;;;;;;24.73;15.07;;;;;;;;;;5002964;28;20211;-50
2021/03/10 00:57:26;;;;;;;24.13;15.17;;;;;;;;;;5003371;28;20563;-47
2021/03/10 00:59:51;;;;;;;29.60;17.03;;;;;;;;;;5003390;28;20196;-52
2021/03/10 01:02:16;;;;;;;29.20;16.10;;;;;;;;;;5004486;28;20310;-46
2021/03/10 01:04:42;;;;;;;27.53;16.60;;;;;;;;;;5000281;28;20216;-46
2021/03/10 01:07:07;;;;;;;28.80;17.57;;;;;;;;;;5000746;28;20205;-49
2021/03/10 01:09:32;;;;;;;32.70;17.67;;;;;;;;;;4988767;28;20191;-48
2021/03/10 01:11:57;;;;;;;26.83;17.13;;;;;;;;;;5008174;28;20209;-48
2021/03/10 01:14:23;;;;;;;29.60;17.07;;;;;;;;;;5003057;28;20223;-47
2021/03/10 01:16:48;;;;;;;27.17;15.77;;;;;;;;;;5000234;28;20663;-47
2021/03/10 01:19:14;;;;;;;25.27;15.77;;;;;;;;;;4987369;28;20274;-50
2021/03/10 01:21:39;;;;;;;27.43;16.70;;;;;;;;;;5009598;28;20778;-48
2021/03/10 01:24:07;;;;;;;25.17;15.83;;;;;;;;;;5006214;28;20206;-48
2021/03/10 01:26:32;;;;;;;25.13;15.93;;;;;;;;;;5001898;28;20550;-48
2021/03/10 01:28:57;;;;;;;25.10;16.47;;;;;;;;;;4999692;28;20203;-51
2021/03/10 01:31:23;;;;;;;25.47;15.53;;;;;;;;;;5005747;28;20195;-49
2021/03/10 01:33:48;;;;;;;24.63;15.90;;;;;;;;;;5003288;28;22088;-49
2021/03/10 01:36:13;;;;;;;28.33;15.63;;;;;;;;;;4989395;28;20187;-47
2021/03/10 01:38:39;;;;;;;25.40;15.20;;;;;;;;;;4997565;28;20727;-52
2021/03/10 01:41:05;;;;;;;24.50;15.80;;;;;;;;;;4997526;28;20198;-49
2021/03/10 01:43:30;;;;;;;26.13;16.03;;;;;;;;;;5000631;28;20184;-50
2021/03/10 01:45:56;;;;;;;23.07;14.97;;;;;;;;;;5011821;28;20253;-48
2021/03/10 01:48:22;;;;;;;25.63;14.70;;;;;;;;;;4998698;28;20219;-48
2021/03/10 01:50:48;;;;;;;24.20;14.63;;;;;;;;;;5006070;28;20199;-48
2021/03/10 01:53:18;;;;;;;27.53;15.93;;;;;;;;;;5001600;28;20219;-48
2021/03/10 01:55:45;;;;;;;26.13;15.80;;;;;;;;;;5002261;28;20225;-49
2021/03/10 01:58:10;;;;;;;24.23;14.97;;;;;;;;;;4996312;28;20229;-47
2021/03/10 02:00:36;;;;;;;26.50;16.13;;;;;;;;;;5007603;28;20703;-46
2021/03/10 02:03:01;;;;;;;30.37;16.37;;;;;;;;;;5005704;28;20257;-50
2021/03/10 02:05:27;;;;;;;26.87;16.27;;;;;;;;;;5002735;28;20219;-47
2021/03/10 02:08:11;;;;;;;28.93;16.30;;;;;;;;;;4985409;28;20286;-48
2021/03/10 02:10:57;;;;;;;30.00;15.63;;;;;;;;;;5008725;28;20206;-50
2021/03/10 02:13:50;;;;;;;26.33;16.23;;;;;;;;;;5008078;28;20245;-49
2021/03/10 02:16:40;;;;;;;24.20;15.67;;;;;;;;;;4990369;28;20723;-47
2021/03/10 02:19:30;;;;;;;23.97;13.97;;;;;;;;;;5007905;28;20195;-47
2021/03/10 02:22:07;;;;;;;26.20;14.67;;;;;;;;;;5001792;28;20233;-47
2021/03/10 02:24:56;;;;;;;27.10;14.90;;;;;;;;;;5004052;28;20751;-48
2021/03/10 02:27:36;;;;;;;26.33;15.50;;;;;;;;;;5016252;28;20664;-49
2021/03/10 02:30:06;;;;;;;28.67;16.43;;;;;;;;;;5011181;28;20183;-48
2021/03/10 02:32:38;;;;;;;29.53;16.57;;;;;;;;;;5009277;28;20714;-50
2021/03/10 02:35:05;;;;;;;25.77;15.60;;;;;;;;;;5000844;28;20592;-46
2021/03/10 02:37:33;;;;;;;28.00;16.67;;;;;;;;;;5006690;28;20194;-49
2021/03/10 02:39:59;;;;;;;26.17;16.07;;;;;;;;;;5019845;28;20204;-48
2021/03/10 02:42:26;;;;;;;24.43;15.43;;;;;;;;;;5011017;28;20198;-49
2021/03/10 02:44:53;;;;;;;26.67;15.47;;;;;;;;;;5006920;28;20706;-47
2021/03/10 02:47:19;;;;;;;24.27;14.93;;;;;;;;;;5012957;28;20249;-49
2021/03/10 02:49:44;;;;;;;30.20;16.83;;;;;;;;;;5003932;28;20608;-49
2021/03/10 02:52:11;;;;;;;27.70;16.47;;;;;;;;;;5007352;28;20611;-47
2021/03/10 02:54:36;;;;;;;27.97;16.77;;;;;;;;;;5007411;28;20218;-47
2021/03/10 02:57:02;;;;;;;27.67;16.63;;;;;;;;;;5002163;28;20238;-47
2021/03/10 02:59:29;;;;;;;28.43;16.23;;;;;;;;;;5001660;28;20534;-48
2021/03/10 03:01:55;;;;;;;28.13;16.67;;;;;;;;;;5005568;28;20188;-49
2021/03/10 03:04:21;;;;;;;29.07;16.83;;;;;;;;;;5009294;28;20237;-49
2021/03/10 03:06:46;;;;;;;29.37;17.63;;;;;;;;;;5004258;28;20687;-48
2021/03/10 03:09:13;;;;;;;26.63;17.83;;;;;;;;;;5006125;28;20278;-48
2021/03/10 03:11:39;;;;;;;30.17;16.63;;;;;;;;;;5011723;28;20194;-48
2021/03/10 03:14:05;;;;;;;24.77;16.50;;;;;;;;;;5003112;28;20223;-47
2021/03/10 03:16:31;;;;;;;28.90;16.40;;;;;;;;;;5007231;28;20656;-48
2021/03/10 03:18:57;;;;;;;26.83;16.70;;;;;;;;;;5007250;28;20200;-49
2021/03/10 03:21:23;;;;;;;29.40;17.83;;;;;;;;;;5016869;28;20194;-49
2021/03/10 03:23:51;;;;;;;29.80;18.67;;;;;;;;;;5003108;28;20183;-49
2021/03/10 03:26:17;;;;;;;31.03;18.90;;;;;;;;;;4995603;28;20195;-49
2021/03/10 03:28:44;;;;;;;30.27;18.00;;;;;;;;;;5001006;28;20191;-50
2021/03/10 03:31:10;;;;;;;27.83;16.40;;;;;;;;;;5012638;28;20643;-49
2021/03/10 03:33:35;;;;;;;31.63;17.70;;;;;;;;;;4986063;28;20275;-47
2021/03/10 03:36:01;;;;;;;29.00;17.53;;;;;;;;;;4991148;28;20664;-48
2021/03/10 03:38:27;;;;;;;30.20;16.60;;;;;;;;;;5003802;28;20191;-48
2021/03/10 03:40:54;;;;;;;29.30;17.63;;;;;;;;;;5010862;28;20179;-48
2021/03/10 03:43:20;;;;;;;28.93;17.57;;;;;;;;;;4986130;28;20241;-48
2021/03/10 03:45:46;;;;;;;31.30;17.50;;;;;;;;;;4991321;28;20684;-48
2021/03/10 03:48:11;;;;;;;32.73;18.03;;;;;;;;;;4997743;28;20191;-49
2021/03/10 03:50:40;;;;;;;28.57;16.97;;;;;;;;;;5008922;28;20326;-48
2021/03/10 03:53:05;;;;;;;26.60;17.20;;;;;;;;;;5004151;28;20226;-48
2021/03/10 03:55:30;;;;;;;31.90;17.07;;;;;;;;;;5000819;28;20297;-49
2021/03/10 03:57:55;;;;;;;28.23;18.00;;;;;;;;;;5013857;28;20192;-47
2021/03/10 04:00:27;;;;;;;27.97;17.70;;;;;;;;;;5007419;28;20191;-50
2021/03/10 04:02:53;;;;;;;28.93;17.03;;;;;;;;;;5000734;28;20195;-47
2021/03/10 04:05:20;;;;;;;29.97;16.73;;;;;;;;;;5003236;28;20219;-48
2021/03/10 04:07:47;;;;;;;28.30;17.73;;;;;;;;;;5004002;28;20249;-48
2021/03/10 04:10:12;;;;;;;24.93;16.40;;;;;;;;;;5007218;28;20192;-50
2021/03/10 04:12:37;;;;;;;27.03;16.53;;;;;;;;;;4986549;28;20207;-50
2021/03/10 04:15:03;;;;;;;26.43;16.20;;;;;;;;;;4990613;28;20761;-49
2021/03/10 04:17:29;;;;;;;27.40;16.30;;;;;;;;;;5005791;28;20187;-48
2021/03/10 04:19:54;;;;;;;26.43;15.70;;;;;;;;;;4999513;28;20188;-49
2021/03/10 04:22:19;;;;;;;30.30;16.20;;;;;;;;;;5005617;28;20741;-47
2021/03/10 04:24:44;;;;;;;27.60;16.57;;;;;;;;;;5004320;28;20257;-48
2021/03/10 04:27:10;;;;;;;31.50;18.37;;;;;;;;;;5015827;28;20298;-47
2021/03/10 04:29:35;;;;;;;26.63;17.10;;;;;;;;;;4994735;28;20249;-49
2021/03/10 04:32:01;;;;;;;29.37;18.57;;;;;;;;;;5003615;28;20192;-47
2021/03/10 04:34:26;;;;;;;27.63;17.30;;;;;;;;;;5000756;28;20238;-49
2021/03/10 04:36:51;;;;;;;27.87;17.10;;;;;;;;;;5012049;28;20213;-49
2021/03/10 04:39:16;;;;;;;26.47;17.00;;;;;;;;;;5015315;28;20189;-49
2021/03/10 04:41:42;;;;;;;26.40;16.47;;;;;;;;;;5004208;28;20192;-50
2021/03/10 04:44:07;;;;;;;27.97;16.60;;;;;;;;;;5004407;28;20245;-48
2021/03/10 04:46:33;;;;;;;29.27;17.30;;;;;;;;;;5012449;28;20198;-47
2021/03/10 04:48:58;;;;;;;29.57;17.87;;;;;;;;;;5006302;28;20269;-50
2021/03/10 04:51:23;;;;;;;31.77;17.87;;;;;;;;;;5007399;28;20268;-47
2021/03/10 04:53:48;;;;;;;29.93;17.90;;;;;;;;;;4993064;28;20207;-48
2021/03/10 04:56:14;;;;;;;29.57;18.27;;;;;;;;;;5007090;28;20187;-50
2021/03/10 04:58:39;;;;;;;27.87;17.13;;;;;;;;;;5015693;28;20274;-47
2021/03/10 05:01:04;;;;;;;28.80;18.27;;;;;;;;;;4986701;28;20586;-47
2021/03/10 05:03:29;;;;;;;32.87;18.07;;;;;;;;;;5005137;28;20187;-50
2021/03/10 05:05:55;;;;;;;30.57;17.80;;;;;;;;;;5000186;28;20275;-48
2021/03/10 05:08:20;;;;;;;29.73;19.17;;;;;;;;;;4998236;28;20648;-49
2021/03/10 05:10:45;;;;;;;28.73;18.40;;;;;;;;;;5005080;28;20245;-48
2021/03/10 05:13:10;;;;;;;32.83;18.93;;;;;;;;;;4984403;28;20214;-49
2021/03/10 05:15:36;;;;;;;36.10;19.83;;;;;;;;;;5003063;28;20745;-50
2021/03/10 05:18:01;;;;;;;30.37;18.83;;;;;;;;;;5007129;28;20222;-49
2021/03/10 05:20:26;;;;;;;31.33;18.53;;;;;;;;;;5004086;28;20245;-47
2021/03/10 05:22:52;;;;;;;36.60;20.20;;;;;;;;;;5003094;28;20840;-48
2021/03/10 05:25:17;;;;;;;37.07;20.60;;;;;;;;;;5000553;28;20215;-52
2021/03/10 05:27:42;;;;;;;35.20;19.30;;;;;;;;;;4983520;28;20186;-47
2021/03/10 05:30:09;;;;;;;33.73;18.83;;;;;;;;;;5002080;28;20199;-48
2021/03/10 05:32:34;;;;;;;32.97;19.93;;;;;;;;;;5004099;28;20250;-48
2021/03/10 05:35:00;;;;;;;36.57;20.63;;;;;;;;;;5011583;28;20219;-50
2021/03/10 05:37:25;;;;;;;35.70;20.23;;;;;;;;;;5012206;28;22310;-48
2021/03/10 05:39:50;;;;;;;29.30;18.93;;;;;;;;;;5007694;28;21510;-47
2021/03/10 05:42:17;;;;;;;33.13;19.30;;;;;;;;;;5003030;28;20675;-48
2021/03/10 05:44:52;;;;;;;34.00;19.33;;;;;;;;;;5011246;28;20200;-48
2021/03/10 05:47:20;;;;;;;30.90;18.40;;;;;;;;;;5012045;28;20203;-48
2021/03/10 05:49:47;;;;;;;36.73;19.23;;;;;;;;;;4994580;28;20214;-48
2021/03/10 05:52:13;;;;;;;33.67;19.03;;;;;;;;;;5006895;28;20191;-51
2021/03/10 05:54:41;;;;;;;30.23;18.53;;;;;;;;;;5007227;28;20214;-50
2021/03/10 05:57:07;;;;;;;29.03;18.07;;;;;;;;;;4985218;28;20670;-48
2021/03/10 05:59:32;;;;;;;31.13;18.57;;;;;;;;;;5006564;28;20184;-49
2021/03/10 06:01:58;;;;;;;27.60;16.93;;;;;;;;;;5003640;28;20241;-47
2021/03/10 06:04:24;;;;;;;26.67;17.07;;;;;;;;;;4988213;28;20195;-47
2021/03/10 06:06:50;;;;;;;26.93;16.37;;;;;;;;;;4995832;28;20223;-46
2021/03/10 06:09:17;;;;;;;29.80;17.33;;;;;;;;;;5002274;28;20212;-47
2021/03/10 06:11:59;;;;;;;29.03;17.63;;;;;;;;;;4982372;28;20192;-47
2021/03/10 06:14:25;;;;;;;32.27;18.23;;;;;;;;;;5007342;28;20253;-47
2021/03/10 06:17:10;;;;;;;29.67;17.73;;;;;;;;;;5009258;28;20226;-49
2021/03/10 06:19:46;;;;;;;29.87;17.03;;;;;;;;;;5010983;28;20277;-49
2021/03/10 06:22:12;;;;;;;27.67;15.97;;;;;;;;;;5014142;28;20225;-48
2021/03/10 06:24:37;;;;;;;27.83;16.80;;;;;;;;;;5009755;28;20215;-49
2021/03/10 06:27:03;;;;;;;25.97;16.73;;;;;;;;;;5008903;28;20240;-47
2021/03/10 06:29:29;;;;;;;28.97;16.57;;;;;;;;;;5000776;28;20592;-48
2021/03/10 06:32:08;;;;;;;29.07;16.43;;;;;;;;;;5011188;28;20302;-49
2021/03/10 06:34:44;;;;;;;29.03;16.43;;;;;;;;;;5003881;28;20211;-50
2021/03/10 06:37:23;;;;;;;26.83;16.20;;;;;;;;;;5005276;28;20756;-48
2021/03/10 06:39:48;;;;;;;29.83;17.80;;;;;;;;;;4997968;28;20627;-49
2021/03/10 06:42:14;;;;;;;29.27;16.33;;;;;;;;;;5010613;28;20270;-48
2021/03/10 06:44:52;;;;;;;26.37;14.13;;;;;;;;;;5011462;28;20225;-49
2021/03/10 06:47:19;;;;;;;24.87;15.20;;;;;;;;;;5006903;28;20251;-48
2021/03/10 06:49:49;;;;;;;25.90;16.23;;;;;;;;;;4989722;28;20184;-52
2021/03/10 06:52:15;;;;;;;26.07;14.50;;;;;;;;;;5009482;28;20225;-47
2021/03/10 06:54:53;;;;;;;25.00;16.93;;;;;;;;;;5007429;28;20206;-49
2021/03/10 06:57:18;;;;;;;27.17;16.20;;;;;;;;;;4999288;28;20247;-49
2021/03/10 06:59:46;;;;;;;24.27;14.67;;;;;;;;;;5006710;28;20271;-48
2021/03/10 07:02:25;;;;;;;19.07;11.90;;;;;;;;;;5000346;28;20191;-49
2021/03/10 07:04:52;;;;;;;22.33;11.93;;;;;;;;;;4990858;28;20207;-48
2021/03/10 07:07:18;;;;;;;13.10;8.50;;;;;;;;;;5004517;28;20604;-49
2021/03/10 07:09:45;;;;;;;20.13;12.47;;;;;;;;;;5006471;28;20183;-47
2021/03/10 07:12:13;;;;;;;26.60;16.03;;;;;;;;;;5001920;28;20183;-48
2021/03/10 07:14:39;;;;;;;22.50;12.70;;;;;;;;;;5001189;28;20211;-48
2021/03/10 07:17:08;;;;;;;26.10;16.63;;;;;;;;;;5009603;28;20194;-47
2021/03/10 07:19:34;;;;;;;20.43;12.43;;;;;;;;;;5004202;28;20194;-50
2021/03/10 07:21:59;;;;;;;24.37;14.63;;;;;;;;;;4997335;28;20184;-49
2021/03/10 07:24:34;;;;;;;23.57;15.00;;;;;;;;;;5006673;28;20295;-49
2021/03/10 07:27:02;;;;;;;21.90;15.97;;;;;;;;;;5006656;28;20182;-55
2021/03/10 07:29:37;;;;;;;26.03;15.80;;;;;;;;;;5005095;28;20249;-48
2021/03/10 07:32:05;;;;;;;28.50;18.80;;;;;;;;;;5005677;28;20191;-49
2021/03/10 07:34:31;;;;;;;27.57;16.93;;;;;;;;;;5002153;28;20714;-50
2021/03/10 07:36:56;;;;;;;30.43;20.23;;;;;;;;;;4988649;28;20187;-49
2021/03/10 07:39:27;;;;;;;33.13;21.57;;;;;;;;;;5004982;28;20245;-50
2021/03/10 07:41:53;;;;;;;24.57;15.97;;;;;;;;;;5005743;28;20626;-51
2021/03/10 07:44:23;;;;;;;31.17;18.83;;;;;;;;;;5003824;28;20230;-52
2021/03/10 07:47:01;;;;;;;27.07;17.03;;;;;;;;;;4991499;28;20191;-50
2021/03/10 07:49:27;;;;;;;26.47;15.07;;;;;;;;;;5005101;28;20659;-51
2021/03/10 07:52:06;;;;;;;31.70;19.43;;;;;;;;;;5002341;28;20186;-52
2021/03/10 07:54:31;;;;;;;32.90;21.30;;;;;;;;;;5003136;28;20238;-51
2021/03/10 07:57:11;;;;;;;30.57;19.57;;;;;;;;;;5001222;28;20554;-50
2021/03/10 07:59:51;;;;;;;26.23;16.67;;;;;;;;;;5004279;28;20270;-49
2021/03/10 08:02:16;;;;;;;35.33;21.93;;;;;;;;;;5002296;28;20735;-51
2021/03/10 08:05:02;;;;;;;33.43;20.43;;;;;;;;;;5006801;28;20231;-48
2021/03/10 08:07:32;;;;;;;31.53;18.10;;;;;;;;;;5001132;28;20286;-53
2021/03/10 08:09:58;;;;;;;33.13;20.73;;;;;;;;;;5002858;28;20187;-50
2021/03/10 08:12:35;;;;;;;30.10;18.63;;;;;;;;;;4967688;28;20279;-48
2021/03/10 08:15:00;;;;;;;18.17;10.57;;;;;;;;;;5002871;28;20721;-54
2021/03/10 08:17:28;;;;;;;24.53;15.07;;;;;;;;;;5005095;28;20188;-53
2021/03/10 08:20:01;;;;;;;28.37;17.63;;;;;;;;;;5005425;28;20794;-49
2021/03/10 08:22:28;;;;;;;28.87;16.77;;;;;;;;;;4987159;28;20207;-49
2021/03/10 08:24:55;;;;;;;12.37;5.90;;;;;;;;;;5003988;28;20238;-55
2021/03/10 08:27:30;;;;;;;25.70;15.67;;;;;;;;;;4991230;28;20598;-51
2021/03/10 08:29:55;;;;;;;26.37;16.83;;;;;;;;;;5000057;28;20197;-51
2021/03/10 08:32:25;;;;;;;17.33;10.27;;;;;;;;;;5003305;28;20194;-56
2021/03/10 08:34:51;;;;;;;24.13;15.10;;;;;;;;;;4998952;28;20726;-50
2021/03/10 08:37:17;;;;;;;18.27;8.37;;;;;;;;;;5000787;28;20190;-52
2021/03/10 08:39:47;;;;;;;25.60;15.37;;;;;;;;;;5001877;28;20195;-47
2021/03/10 08:42:20;;;;;;;21.63;15.13;;;;;;;;;;5004084;28;20598;-50
2021/03/10 08:44:46;;;;;;;17.83;11.23;;;;;;;;;;5006831;28;20203;-53
2021/03/10 08:47:25;;;;;;;23.97;15.50;;;;;;;;;;5004181;28;20183;-47
2021/03/10 08:49:55;;;;;;;23.07;13.33;;;;;;;;;;5004866;28;20285;-50
2021/03/10 08:52:22;;;;;;;25.33;15.47;;;;;;;;;;5004358;28;20194;-51
2021/03/10 08:54:54;;;;;;;21.97;12.57;;;;;;;;;;5006915;28;20227;-51
2021/03/10 08:57:27;;;;;;;11.83;7.47;;;;;;;;;;5002185;28;20183;-49
2021/03/10 08:59:53;;;;;;;25.73;17.07;;;;;;;;;;4994398;28;20273;-48
2021/03/10 09:02:32;;;;;;;22.67;14.80;;;;;;;;;;5002615;28;20262;-49
2021/03/10 09:05:00;;;;;;;25.60;14.20;;;;;;;;;;5004988;28;20214;-53
2021/03/10 09:07:26;;;;;;;20.50;13.43;;;;;;;;;;5005457;28;20270;-51
2021/03/10 09:10:00;;;;;;;27.23;17.37;;;;;;;;;;4975725;28;20191;-51
2021/03/10 09:12:29;;;;;;;24.03;17.57;;;;;;;;;;4999356;28;20203;-52
2021/03/10 09:14:55;;;;;;;14.00;9.50;;;;;;;;;;5001102;28;20227;-50
2021/03/10 09:17:31;;;;;;;24.57;16.47;;;;;;;;;;4984206;28;20185;-50
2021/03/10 09:19:59;;;;;;;23.27;13.73;;;;;;;;;;5005342;28;20213;-50
2021/03/10 09:22:25;;;;;;;14.80;8.33;;;;;;;;;;4998457;28;20196;-52
2021/03/10 09:25:11;;;;;;;24.13;16.73;;;;;;;;;;5000989;28;20220;-52
2021/03/10 09:27:36;;;;;;;21.53;13.03;;;;;;;;;;4987053;28;20215;-55
2021/03/10 09:30:28;;;;;;;25.90;17.60;;;;;;;;;;4999565;28;20179;-48
2021/03/10 09:32:54;;;;;;;25.13;17.03;;;;;;;;;;4994021;28;20262;-48
2021/03/10 09:35:26;;;;;;;23.87;16.87;;;;;;;;;;5000777;28;20699;-50
2021/03/10 09:37:54;;;;;;;22.70;16.30;;;;;;;;;;4998329;28;20611;-47
2021/03/10 09:40:33;;;;;;;22.37;16.50;;;;;;;;;;4996330;28;20195;-52
2021/03/10 09:43:02;;;;;;;23.63;17.10;;;;;;;;;;4996667;28;20226;-50
2021/03/10 09:45:30;;;;;;;16.50;9.63;;;;;;;;;;4999094;28;20204;-49
2021/03/10 09:47:55;;;;;;;23.67;14.43;;;;;;;;;;4996273;28;20234;-50
2021/03/10 09:50:32;;;;;;;23.93;16.83;;;;;;;;;;4997437;28;20220;-50
2021/03/10 09:52:58;;;;;;;23.80;15.77;;;;;;;;;;5004457;28;20785;-52
2021/03/10 09:55:26;;;;;;;15.13;9.67;;;;;;;;;;4999374;28;20585;-51
2021/03/10 09:58:04;;;;;;;14.63;9.20;;;;;;;;;;5000036;28;20826;-50
2021/03/10 10:00:30;;;;;;;16.50;10.87;;;;;;;;;;5006160;28;21018;-50
2021/03/10 10:02:56;;;;;;;20.67;14.10;;;;;;;;;;4987350;28;20215;-48
2021/03/10 10:05:24;;;;;;;10.10;6.40;;;;;;;;;;5002615;28;20601;-48
2021/03/10 10:07:50;;;;;;;21.90;14.77;;;;;;;;;;4999837;28;20685;-50
2021/03/10 10:10:16;;;;;;;9.53;5.63;;;;;;;;;;5004535;28;20689;-51
2021/03/10 10:12:50;;;;;;;14.57;8.83;;;;;;;;;;4999141;28;20195;-48
2021/03/10 10:15:21;;;;;;;13.87;6.90;;;;;;;;;;5001256;28;20215;-50
2021/03/10 10:17:53;;;;;;;13.70;7.30;;;;;;;;;;4996880;28;20196;-52
2021/03/10 10:20:22;;;;;;;17.03;10.00;;;;;;;;;;5003302;28;20223;-52
2021/03/10 10:22:48;;;;;;;12.33;6.67;;;;;;;;;;5001725;28;20640;-49
2021/03/10 10:25:16;;;;;;;10.33;6.27;;;;;;;;;;4998028;28;20857;-50
2021/03/10 10:27:46;;;;;;;19.80;9.87;;;;;;;;;;5000562;28;20729;-51
2021/03/10 10:30:14;;;;;;;19.37;12.03;;;;;;;;;;5002739;28;20643;-50
2021/03/10 10:32:43;;;;;;;17.77;11.23;;;;;;;;;;5003350;28;20340;-50
2021/03/10 10:35:10;;;;;;;21.23;12.73;;;;;;;;;;5007280;28;20301;-48
2021/03/10 10:37:36;;;;;;;14.57;8.60;;;;;;;;;;5007574;28;20237;-49
2021/03/10 10:40:02;;;;;;;17.37;10.20;;;;;;;;;;4987000;28;20636;-52
2021/03/10 10:42:27;;;;;;;9.23;6.27;;;;;;;;;;5003979;28;20191;-49
2021/03/10 10:44:53;;;;;;;19.80;10.47;;;;;;;;;;5005561;28;20782;-48
2021/03/10 10:47:19;;;;;;;21.20;13.27;;;;;;;;;;5002888;28;20195;-49
2021/03/10 10:49:45;;;;;;;19.03;13.17;;;;;;;;;;5009024;28;20187;-49
2021/03/10 10:52:10;;;;;;;21.27;14.63;;;;;;;;;;5003887;28;20257;-52
2021/03/10 10:54:35;;;;;;;22.70;16.43;;;;;;;;;;4998858;28;20277;-53
2021/03/10 10:57:00;;;;;;;15.43;9.97;;;;;;;;;;5004183;28;20192;-49
2021/03/10 10:59:26;;;;;;;22.33;14.57;;;;;;;;;;5001593;28;20223;-50
2021/03/10 11:01:51;;;;;;;18.23;12.27;;;;;;;;;;4987430;28;20195;-48
2021/03/10 11:04:16;;;;;;;18.53;13.77;;;;;;;;;;5004428;28;20229;-52
2021/03/10 11:06:42;;;;;;;19.27;12.60;;;;;;;;;;4999287;28;20188;-51
2021/03/10 11:09:07;;;;;;;16.73;13.20;;;;;;;;;;5004460;28;20791;-49
2021/03/10 11:11:32;;;;;;;18.17;14.63;;;;;;;;;;5004013;28;20195;-49
2021/03/10 11:13:58;;;;;;;19.73;13.50;;;;;;;;;;5001357;28;20218;-51
2021/03/10 11:16:23;;;;;;;19.53;14.07;;;;;;;;;;4999438;28;20187;-50
2021/03/10 11:18:48;;;;;;;18.57;12.37;;;;;;;;;;4989187;28;20203;-50
2021/03/10 11:21:14;;;;;;;19.67;13.53;;;;;;;;;;5005028;28;20198;-49
2021/03/10 11:23:39;;;;;;;19.43;13.33;;;;;;;;;;5004227;28;20218;-49
2021/03/10 11:26:04;;;;;;;20.83;15.40;;;;;;;;;;4988273;28;20215;-48
2021/03/10 11:28:30;;;;;;;21.43;14.77;;;;;;;;;;4990642;28;20188;-51
2021/03/10 11:30:55;;;;;;;17.60;12.83;;;;;;;;;;5002764;28;20582;-50
2021/03/10 11:33:20;;;;;;;22.77;15.50;;;;;;;;;;5004442;28;20192;-48
2021/03/10 11:35:46;;;;;;;12.07;8.23;;;;;;;;;;5002369;28;20278;-49
2021/03/10 11:38:11;;;;;;;19.63;14.23;;;;;;;;;;5004237;28;20210;-49
2021/03/10 11:40:37;;;;;;;18.93;13.63;;;;;;;;;;5005482;28;20199;-51
2021/03/10 11:43:03;;;;;;;17.40;13.47;;;;;;;;;;5006833;28;20183;-51
2021/03/10 11:45:28;;;;;;;16.80;13.13;;;;;;;;;;5003240;28;20362;-49
2021/03/10 11:47:54;;;;;;;18.73;14.13;;;;;;;;;;4990973;28;20286;-52
2021/03/10 11:50:19;;;;;;;14.80;9.77;;;;;;;;;;4991153;28;20191;-52
2021/03/10 11:52:46;;;;;;;14.00;9.43;;;;;;;;;;5004189;28;20192;-50
2021/03/10 11:55:13;;;;;;;17.63;13.53;;;;;;;;;;5004009;28;20349;-48
2021/03/10 11:57:38;;;;;;;18.50;13.23;;;;;;;;;;5004172;28;20286;-50
2021/03/10 12:00:05;;;;;;;19.47;12.77;;;;;;;;;;5004819;28;20333;-49
2021/03/10 12:02:30;;;;;;;14.60;9.37;;;;;;;;;;4985116;28;20211;-48
2021/03/10 12:04:55;;;;;;;17.80;9.97;;;;;;;;;;5002646;28;20870;-49
2021/03/10 12:07:22;;;;;;;15.90;11.73;;;;;;;;;;4985558;28;20190;-53
2021/03/10 12:09:47;;;;;;;16.83;13.63;;;;;;;;;;5005445;28;20199;-47
2021/03/10 12:12:12;;;;;;;17.70;14.07;;;;;;;;;;5006193;28;20281;-52
2021/03/10 12:14:38;;;;;;;10.53;6.73;;;;;;;;;;5004926;28;20211;-50
2021/03/10 12:17:03;;;;;;;18.13;13.57;;;;;;;;;;5004240;28;20214;-50
2021/03/10 12:19:28;;;;;;;16.90;12.73;;;;;;;;;;5004349;28;20560;-50
2021/03/10 12:21:54;;;;;;;16.07;12.27;;;;;;;;;;5005894;28;20196;-48
2021/03/10 12:24:19;;;;;;;14.80;10.97;;;;;;;;;;5004180;28;20210;-52
2021/03/10 12:26:44;;;;;;;12.73;9.20;;;;;;;;;;4999679;28;20208;-51
2021/03/10 12:29:09;;;;;;;17.07;12.77;;;;;;;;;;5004696;28;20195;-51
2021/03/10 12:31:35;;;;;;;19.10;15.37;;;;;;;;;;5003358;28;20191;-52
2021/03/10 12:34:00;;;;;;;15.80;12.50;;;;;;;;;;5004071;28;20429;-48
2021/03/10 12:36:25;;;;;;;15.57;11.77;;;;;;;;;;4986512;28;20187;-49
2021/03/10 12:38:51;;;;;;;16.20;13.00;;;;;;;;;;4998343;28;20191;-49
2021/03/10 12:41:16;;;;;;;19.03;13.57;;;;;;;;;;4996258;28;20279;-48
2021/03/10 12:43:41;;;;;;;17.17;13.90;;;;;;;;;;5000248;28;20686;-52
2021/03/10 12:46:07;;;;;;;7.77;5.47;;;;;;;;;;5000650;28;20251;-51
2021/03/10 12:48:32;;;;;;;14.53;10.23;;;;;;;;;;5004065;28;20230;-48
2021/03/10 12:50:57;;;;;;;17.10;11.07;;;;;;;;;;4982676;28;20220;-53
2021/03/10 12:53:23;;;;;;;17.67;13.47;;;;;;;;;;4981257;28;20198;-49
2021/03/10 12:55:48;;;;;;;17.77;13.00;;;;;;;;;;5001137;28;20203;-50
2021/03/10 12:58:13;;;;;;;17.70;13.73;;;;;;;;;;4991910;28;20195;-50
2021/03/10 13:00:39;;;;;;;19.97;13.07;;;;;;;;;;4997971;28;20191;-50
2021/03/10 13:03:04;;;;;;;17.67;13.53;;;;;;;;;;4983905;28;20203;-53
2021/03/10 13:05:30;;;;;;;18.73;14.77;;;;;;;;;;4999554;28;20200;-49
2021/03/10 13:07:55;;;;;;;17.00;12.77;;;;;;;;;;4996985;28;20199;-50
2021/03/10 13:10:21;;;;;;;17.00;10.80;;;;;;;;;;4993323;28;20564;-52
2021/03/10 13:12:47;;;;;;;25.33;15.57;;;;;;;;;;4997549;28;20215;-49
2021/03/10 13:15:13;;;;;;;20.77;13.47;;;;;;;;;;4986057;28;20257;-52
2021/03/10 13:17:38;;;;;;;20.93;16.23;;;;;;;;;;4997708;28;20599;-54
2021/03/10 13:20:04;;;;;;;21.90;14.17;;;;;;;;;;4983262;28;20399;-49
2021/03/10 13:22:29;;;;;;;22.27;15.33;;;;;;;;;;4995388;28;20692;-49
2021/03/10 13:24:55;;;;;;;23.10;17.03;;;;;;;;;;4996700;28;20210;-48
2021/03/10 13:27:20;;;;;;;20.10;14.13;;;;;;;;;;5000842;28;20309;-50
2021/03/10 13:29:46;;;;;;;23.13;16.50;;;;;;;;;;4977399;28;20188;-50
2021/03/10 13:32:11;;;;;;;18.73;13.77;;;;;;;;;;4993439;28;20187;-51
2021/03/10 13:34:36;;;;;;;17.17;8.90;;;;;;;;;;4998493;28;20632;-52
2021/03/10 13:37:01;;;;;;;10.77;7.13;;;;;;;;;;5002758;28;20257;-53
2021/03/10 13:39:27;;;;;;;20.00;14.17;;;;;;;;;;5005020;28;20241;-51
2021/03/10 13:41:52;;;;;;;21.73;16.23;;;;;;;;;;4999702;28;20241;-51
2021/03/10 13:44:18;;;;;;;22.23;17.33;;;;;;;;;;5002628;28;20662;-48
2021/03/10 13:46:43;;;;;;;20.23;14.57;;;;;;;;;;5002014;28;20649;-52
2021/03/10 13:49:08;;;;;;;15.27;9.50;;;;;;;;;;4998950;28;20196;-50
2021/03/10 13:51:33;;;;;;;16.23;10.07;;;;;;;;;;4979009;28;20259;-52
2021/03/10 13:53:59;;;;;;;19.53;14.10;;;;;;;;;;4998131;28;20227;-51
2021/03/10 13:56:25;;;;;;;13.43;8.77;;;;;;;;;;4997279;28;20199;-53
2021/03/10 13:58:50;;;;;;;13.83;8.83;;;;;;;;;;5011167;28;20195;-49
2021/03/10 14:01:16;;;;;;;17.57;12.10;;;;;;;;;;5001618;28;20592;-51
2021/03/10 14:03:41;;;;;;;16.17;11.57;;;;;;;;;;5002033;28;20545;-50
2021/03/10 14:06:07;;;;;;;10.50;7.60;;;;;;;;;;5004360;28;20192;-50
2021/03/10 14:08:32;;;;;;;11.90;6.90;;;;;;;;;;5001952;28;20191;-51
2021/03/10 14:10:59;;;;;;;13.30;9.00;;;;;;;;;;4990096;28;20675;-49
2021/03/10 14:13:24;;;;;;;23.90;13.97;;;;;;;;;;4983516;28;20223;-50
2021/03/10 14:15:50;;;;;;;20.17;10.90;;;;;;;;;;5006455;28;20243;-50
2021/03/10 14:18:15;;;;;;;16.33;7.67;;;;;;;;;;5003997;28;20214;-50
2021/03/10 14:20:40;;;;;;;15.33;9.07;;;;;;;;;;5004744;28;20681;-49